6N9 weather

Eagles Nest Airport
Potters Hill, North Carolina, United States

Public forecast

Using degrees Fahrenheit for public forecast. Weather courtesy of forecast.io.

METAR (pilot weather report)

Closest report is Albert J Ellis Airport, 10.1 nm (18.7 km) SSE. Retrieved 2019/06/19 23:56 UTC (16 minutes ago):

KOAJ 192356Z 22009KT 10SM FEW039 SCT046 BKN060 30/22 A2978 RMK AO2 SLP085 T03000222 10339 20300 55002

TAF (pilot weather forecast)

Forecast is more than 12 hours old.

Closest forecast is Albert J Ellis Airport, 10.1 nm (18.7 km) SSE. Retrieved 2019/06/19 00:42 UTC (23 hours ago):

TAF KOAJ 192339Z 2000/2024 20007KT P6SM FEW050 SCT110 FM200900 22007KT P6SM FEW005 SCT015 FM201300 23009G16KT P6SM FEW050 SCT250 AMD LTD TO CLD VIS AND WIND